sensor_id;sensor_type;location;lat;lon;timestamp;pressure;altitude;pressure_sealevel;temperature;humidity
58757;BME280;44527;47.460;19.016;2022-07-29T00:02:47;100253.34;;;23.68;46.29
58757;BME280;44527;47.460;19.016;2022-07-29T00:05:49;100247.97;;;23.68;46.53
58757;BME280;44527;47.460;19.016;2022-07-29T00:08:53;100250.22;;;23.65;46.97
58757;BME280;44527;47.460;19.016;2022-07-29T00:11:59;100247.53;;;23.65;46.39
58757;BME280;44527;47.460;19.016;2022-07-29T00:15:03;100250.66;;;23.68;46.28
58757;BME280;44527;47.460;19.016;2022-07-29T00:18:06;100247.00;;;23.69;46.53
58757;BME280;44527;47.460;19.016;2022-07-29T00:21:08;100253.72;;;23.65;46.31
58757;BME280;44527;47.460;19.016;2022-07-29T00:24:11;100252.38;;;23.69;46.86
58757;BME280;44527;47.460;19.016;2022-07-29T00:27:13;100250.84;;;23.67;47.01
58757;BME280;44527;47.460;19.016;2022-07-29T00:30:16;100249.47;;;23.71;46.97
58757;BME280;44527;47.460;19.016;2022-07-29T00:33:18;100253.19;;;23.70;46.67
58757;BME280;44527;47.460;19.016;2022-07-29T00:36:21;100262.41;;;23.67;47.02
58757;BME280;44527;47.460;19.016;2022-07-29T00:39:23;100265.09;;;23.67;46.94
58757;BME280;44527;47.460;19.016;2022-07-29T00:42:28;100261.13;;;23.63;46.99
58757;BME280;44527;47.460;19.016;2022-07-29T00:45:30;100260.94;;;23.65;46.90
58757;BME280;44527;47.460;19.016;2022-07-29T00:48:32;100246.06;;;23.62;46.98
58757;BME280;44527;47.460;19.016;2022-07-29T00:51:38;100248.34;;;23.65;46.80
58757;BME280;44527;47.460;19.016;2022-07-29T00:54:41;100256.16;;;23.60;46.49
58757;BME280;44527;47.460;19.016;2022-07-29T00:57:45;100258.44;;;23.63;46.79
58757;BME280;44527;47.460;19.016;2022-07-29T01:00:48;100250.78;;;23.60;46.68
58757;BME280;44527;47.460;19.016;2022-07-29T01:03:50;100258.63;;;23.61;46.91
58757;BME280;44527;47.460;19.016;2022-07-29T01:06:54;100257.59;;;23.62;46.65
58757;BME280;44527;47.460;19.016;2022-07-29T01:09:56;100252.62;;;23.59;46.42
58757;BME280;44527;47.460;19.016;2022-07-29T01:13:00;100239.59;;;23.56;47.02
58757;BME280;44527;47.460;19.016;2022-07-29T01:16:08;100241.91;;;23.59;46.88
58757;BME280;44527;47.460;19.016;2022-07-29T01:26:28;100250.50;;;23.55;47.60
58757;BME280;44527;47.460;19.016;2022-07-29T01:29:39;100245.69;;;23.50;47.53
58757;BME280;44527;47.460;19.016;2022-07-29T01:32:47;100238.50;;;23.51;47.46
58757;BME280;44527;47.460;19.016;2022-07-29T01:35:51;100247.56;;;23.50;47.74
58757;BME280;44527;47.460;19.016;2022-07-29T01:39:02;100248.13;;;23.45;47.68
58757;BME280;44527;47.460;19.016;2022-07-29T01:42:45;100243.41;;;23.47;48.01
58757;BME280;44527;47.460;19.016;2022-07-29T01:45:55;100238.78;;;23.41;48.20
58757;BME280;44527;47.460;19.016;2022-07-29T01:49:10;100248.31;;;23.44;47.99
58757;BME280;44527;47.460;19.016;2022-07-29T01:52:20;100238.72;;;23.34;48.19
58757;BME280;44527;47.460;19.016;2022-07-29T01:55:28;100242.12;;;23.28;48.15
58757;BME280;44527;47.460;19.016;2022-07-29T01:58:31;100245.19;;;23.25;48.07
58757;BME280;44527;47.460;19.016;2022-07-29T02:01:36;100242.72;;;23.24;48.49
58757;BME280;44527;47.460;19.016;2022-07-29T02:04:40;100232.38;;;23.21;48.58
58757;BME280;44527;47.460;19.016;2022-07-29T02:07:44;100232.75;;;23.17;48.79
58757;BME280;44527;47.460;19.016;2022-07-29T02:10:49;100230.44;;;23.14;49.09
58757;BME280;44527;47.460;19.016;2022-07-29T02:13:55;100241.16;;;23.14;49.23
58757;BME280;44527;47.460;19.016;2022-07-29T02:17:00;100242.97;;;23.14;49.24
58757;BME280;44527;47.460;19.016;2022-07-29T02:20:04;100234.78;;;23.15;49.27
58757;BME280;44527;47.460;19.016;2022-07-29T02:23:09;100226.47;;;23.10;49.48
58757;BME280;44527;47.460;19.016;2022-07-29T02:26:12;100228.41;;;23.02;49.35
58757;BME280;44527;47.460;19.016;2022-07-29T02:29:15;100226.28;;;22.97;49.47
58757;BME280;44527;47.460;19.016;2022-07-29T02:32:19;100220.28;;;22.95;49.38
58757;BME280;44527;47.460;19.016;2022-07-29T02:35:23;100228.66;;;22.92;49.48
58757;BME280;44527;47.460;19.016;2022-07-29T02:38:28;100230.03;;;22.88;49.53
58757;BME280;44527;47.460;19.016;2022-07-29T02:41:51;100222.38;;;22.85;50.04
58757;BME280;44527;47.460;19.016;2022-07-29T02:44:55;100226.44;;;22.81;49.70
58757;BME280;44527;47.460;19.016;2022-07-29T02:47:59;100221.47;;;22.78;49.74
58757;BME280;44527;47.460;19.016;2022-07-29T02:51:17;100221.62;;;22.76;49.82
58757;BME280;44527;47.460;19.016;2022-07-29T02:55:01;100227.19;;;22.75;50.09
58757;BME280;44527;47.460;19.016;2022-07-29T02:58:17;100224.00;;;22.71;49.71
58757;BME280;44527;47.460;19.016;2022-07-29T03:01:29;100224.59;;;22.66;50.05
58757;BME280;44527;47.460;19.016;2022-07-29T03:04:32;100222.28;;;22.63;50.34
58757;BME280;44527;47.460;19.016;2022-07-29T03:07:37;100226.97;;;22.61;50.09
58757;BME280;44527;47.460;19.016;2022-07-29T03:10:43;100223.81;;;22.58;50.31
58757;BME280;44527;47.460;19.016;2022-07-29T03:13:46;100222.63;;;22.60;50.11
58757;BME280;44527;47.460;19.016;2022-07-29T03:16:49;100223.81;;;22.58;50.26
58757;BME280;44527;47.460;19.016;2022-07-29T03:19:53;100224.56;;;22.52;50.57
58757;BME280;44527;47.460;19.016;2022-07-29T03:22:56;100227.22;;;22.52;50.66
58757;BME280;44527;47.460;19.016;2022-07-29T03:25:59;100228.06;;;22.52;50.88
58757;BME280;44527;47.460;19.016;2022-07-29T03:29:01;100218.75;;;22.48;50.90
58757;BME280;44527;47.460;19.016;2022-07-29T03:32:04;100224.75;;;22.50;50.86
58757;BME280;44527;47.460;19.016;2022-07-29T03:35:08;100230.09;;;22.50;50.86
58757;BME280;44527;47.460;19.016;2022-07-29T03:38:11;100231.91;;;22.49;50.84
58757;BME280;44527;47.460;19.016;2022-07-29T03:41:14;100229.75;;;22.53;50.61
58757;BME280;44527;47.460;19.016;2022-07-29T03:44:17;100232.22;;;22.55;50.90
58757;BME280;44527;47.460;19.016;2022-07-29T03:47:23;100232.50;;;22.60;50.44
58757;BME280;44527;47.460;19.016;2022-07-29T03:50:49;100231.13;;;22.64;50.67
58757;BME280;44527;47.460;19.016;2022-07-29T03:53:52;100228.38;;;22.72;50.35
58757;BME280;44527;47.460;19.016;2022-07-29T03:56:59;100230.94;;;22.80;50.22
58757;BME280;44527;47.460;19.016;2022-07-29T04:00:04;100237.41;;;22.86;49.86
58757;BME280;44527;47.460;19.016;2022-07-29T04:03:08;100243.72;;;22.93;49.78
58757;BME280;44527;47.460;19.016;2022-07-29T04:06:16;100243.19;;;22.98;49.56
58757;BME280;44527;47.460;19.016;2022-07-29T04:09:18;100241.59;;;23.03;49.54
58757;BME280;44527;47.460;19.016;2022-07-29T04:12:20;100239.31;;;23.15;49.64
58757;BME280;44527;47.460;19.016;2022-07-29T04:15:23;100247.41;;;23.22;50.63
58757;BME280;44527;47.460;19.016;2022-07-29T04:18:25;100243.91;;;23.06;56.50
58757;BME280;44527;47.460;19.016;2022-07-29T04:21:28;100241.97;;;23.00;55.81
58757;BME280;44527;47.460;19.016;2022-07-29T04:24:30;100244.28;;;23.03;52.04
58757;BME280;44527;47.460;19.016;2022-07-29T04:27:32;100235.81;;;23.14;53.87
58757;BME280;44527;47.460;19.016;2022-07-29T04:30:36;100246.12;;;23.17;53.56
58757;BME280;44527;47.460;19.016;2022-07-29T04:33:39;100240.66;;;23.26;54.90
58757;BME280;44527;47.460;19.016;2022-07-29T04:36:41;100248.03;;;23.38;51.93
58757;BME280;44527;47.460;19.016;2022-07-29T04:39:44;100242.38;;;23.63;50.93
58757;BME280;44527;47.460;19.016;2022-07-29T04:42:46;100241.28;;;23.94;50.85
58757;BME280;44527;47.460;19.016;2022-07-29T04:45:50;100242.16;;;24.72;49.97
58757;BME280;44527;47.460;19.016;2022-07-29T04:48:52;100246.22;;;25.24;49.33
58757;BME280;44527;47.460;19.016;2022-07-29T04:51:55;100248.34;;;25.90;48.67
58757;BME280;44527;47.460;19.016;2022-07-29T04:54:57;100244.81;;;27.16;43.42
58757;BME280;44527;47.460;19.016;2022-07-29T04:57:59;100245.09;;;28.23;42.33
58757;BME280;44527;47.460;19.016;2022-07-29T05:01:03;100245.94;;;29.47;38.67
58757;BME280;44527;47.460;19.016;2022-07-29T05:04:06;100257.63;;;31.37;34.62
58757;BME280;44527;47.460;19.016;2022-07-29T05:07:08;100252.91;;;33.25;31.30
58757;BME280;44527;47.460;19.016;2022-07-29T05:10:10;100263.75;;;35.03;29.61
58757;BME280;44527;47.460;19.016;2022-07-29T05:13:13;100266.59;;;36.32;26.63
58757;BME280;44527;47.460;19.016;2022-07-29T05:16:16;100264.69;;;36.53;26.79
58757;BME280;44527;47.460;19.016;2022-07-29T05:19:18;100267.37;;;36.48;25.83
58757;BME280;44527;47.460;19.016;2022-07-29T05:22:21;100268.97;;;37.00;24.29
58757;BME280;44527;47.460;19.016;2022-07-29T05:25:26;100256.75;;;37.42;24.16
58757;BME280;44527;47.460;19.016;2022-07-29T05:28:45;100260.13;;;37.23;24.32
58757;BME280;44527;47.460;19.016;2022-07-29T05:31:47;100263.38;;;37.80;23.67
58757;BME280;44527;47.460;19.016;2022-07-29T05:34:50;100258.66;;;37.91;23.45
58757;BME280;44527;47.460;19.016;2022-07-29T05:37:52;100260.63;;;38.20;23.50
58757;BME280;44527;47.460;19.016;2022-07-29T05:40:57;100261.50;;;38.49;21.82
58757;BME280;44527;47.460;19.016;2022-07-29T05:44:00;100269.53;;;38.41;22.55
58757;BME280;44527;47.460;19.016;2022-07-29T05:47:02;100271.69;;;38.73;21.28
58757;BME280;44527;47.460;19.016;2022-07-29T05:50:05;100266.91;;;38.83;21.32
58757;BME280;44527;47.460;19.016;2022-07-29T05:53:08;100266.22;;;38.97;21.63
58757;BME280;44527;47.460;19.016;2022-07-29T05:56:21;100272.00;;;39.19;20.92
58757;BME280;44527;47.460;19.016;2022-07-29T05:59:23;100268.31;;;39.05;21.11
58757;BME280;44527;47.460;19.016;2022-07-29T06:02:31;100277.25;;;38.62;21.38
58757;BME280;44527;47.460;19.016;2022-07-29T06:05:33;100271.91;;;39.24;21.49
58757;BME280;44527;47.460;19.016;2022-07-29T06:08:36;100278.34;;;39.39;20.90
58757;BME280;44527;47.460;19.016;2022-07-29T06:11:39;100276.06;;;38.74;21.31
58757;BME280;44527;47.460;19.016;2022-07-29T06:14:41;100278.44;;;37.83;22.63
58757;BME280;44527;47.460;19.016;2022-07-29T06:17:43;100276.41;;;36.07;24.42
58757;BME280;44527;47.460;19.016;2022-07-29T06:21:07;100275.25;;;35.05;26.22
58757;BME280;44527;47.460;19.016;2022-07-29T06:24:11;100276.09;;;35.83;24.93
58757;BME280;44527;47.460;19.016;2022-07-29T06:27:14;100281.22;;;37.13;23.37
58757;BME280;44527;47.460;19.016;2022-07-29T06:30:18;100284.09;;;38.36;22.09
58757;BME280;44527;47.460;19.016;2022-07-29T06:33:20;100282.00;;;39.34;21.10
58757;BME280;44527;47.460;19.016;2022-07-29T06:36:22;100289.16;;;39.92;20.05
58757;BME280;44527;47.460;19.016;2022-07-29T06:39:26;100301.72;;;39.98;20.41
58757;BME280;44527;47.460;19.016;2022-07-29T06:42:28;100301.75;;;40.77;19.11
58757;BME280;44527;47.460;19.016;2022-07-29T06:45:33;100298.91;;;40.82;18.89
58757;BME280;44527;47.460;19.016;2022-07-29T06:48:36;100297.87;;;41.61;18.09
58757;BME280;44527;47.460;19.016;2022-07-29T06:51:39;100300.28;;;41.76;18.61
58757;BME280;44527;47.460;19.016;2022-07-29T06:54:41;100310.75;;;42.24;17.34
58757;BME280;44527;47.460;19.016;2022-07-29T06:57:49;100306.69;;;43.16;17.26
58757;BME280;44527;47.460;19.016;2022-07-29T07:00:52;100300.00;;;44.09;15.73
58757;BME280;44527;47.460;19.016;2022-07-29T07:03:54;100292.91;;;42.53;17.02
58757;BME280;44527;47.460;19.016;2022-07-29T07:06:57;100297.94;;;43.13;16.82
58757;BME280;44527;47.460;19.016;2022-07-29T07:09:59;100287.34;;;43.16;17.24
58757;BME280;44527;47.460;19.016;2022-07-29T07:13:02;100295.38;;;42.95;16.90
58757;BME280;44527;47.460;19.016;2022-07-29T07:16:05;100298.94;;;43.26;16.34
58757;BME280;44527;47.460;19.016;2022-07-29T07:19:07;100293.47;;;43.78;16.10
58757;BME280;44527;47.460;19.016;2022-07-29T07:22:09;100294.44;;;42.99;16.57
58757;BME280;44527;47.460;19.016;2022-07-29T07:25:12;100287.22;;;41.18;18.43
58757;BME280;44527;47.460;19.016;2022-07-29T07:28:16;100278.50;;;41.39;18.51
58757;BME280;44527;47.460;19.016;2022-07-29T07:31:18;100278.28;;;42.44;17.43
58757;BME280;44527;47.460;19.016;2022-07-29T07:34:21;100290.00;;;42.50;17.25
58757;BME280;44527;47.460;19.016;2022-07-29T07:37:30;100282.47;;;43.12;16.83
58757;BME280;44527;47.460;19.016;2022-07-29T07:40:32;100286.00;;;43.62;16.33
58757;BME280;44527;47.460;19.016;2022-07-29T07:43:35;100284.81;;;44.32;15.84
58757;BME280;44527;47.460;19.016;2022-07-29T07:46:37;100283.84;;;43.32;16.72
58757;BME280;44527;47.460;19.016;2022-07-29T07:49:40;100287.28;;;44.16;16.29
58757;BME280;44527;47.460;19.016;2022-07-29T07:52:53;100274.75;;;43.49;16.60
58757;BME280;44527;47.460;19.016;2022-07-29T07:55:57;100276.69;;;43.23;17.23
58757;BME280;44527;47.460;19.016;2022-07-29T07:59:15;100277.91;;;42.68;17.44
58757;BME280;44527;47.460;19.016;2022-07-29T08:02:17;100270.00;;;41.99;18.01
58757;BME280;44527;47.460;19.016;2022-07-29T08:05:20;100268.75;;;41.19;18.75
58757;BME280;44527;47.460;19.016;2022-07-29T08:08:22;100268.56;;;39.08;21.21
58757;BME280;44527;47.460;19.016;2022-07-29T08:11:25;100268.00;;;38.58;21.75
58757;BME280;44527;47.460;19.016;2022-07-29T08:14:29;100267.16;;;37.94;22.28
58757;BME280;44527;47.460;19.016;2022-07-29T08:17:33;100264.81;;;37.13;23.37
58757;BME280;44527;47.460;19.016;2022-07-29T08:20:36;100265.44;;;36.89;24.08
58757;BME280;44527;47.460;19.016;2022-07-29T08:23:40;100264.66;;;36.32;24.71
58757;BME280;44527;47.460;19.016;2022-07-29T08:26:53;100261.63;;;35.98;25.17
58757;BME280;44527;47.460;19.016;2022-07-29T08:29:56;100257.06;;;35.26;26.88
58757;BME280;44527;47.460;19.016;2022-07-29T08:32:59;100254.06;;;35.32;26.04
58757;BME280;44527;47.460;19.016;2022-07-29T08:36:02;100249.63;;;35.11;26.52
58757;BME280;44527;47.460;19.016;2022-07-29T08:39:04;100252.47;;;34.41;27.36
58757;BME280;44527;47.460;19.016;2022-07-29T08:42:07;100253.84;;;34.12;27.95
58757;BME280;44527;47.460;19.016;2022-07-29T08:45:11;100250.50;;;33.77;28.88
58757;BME280;44527;47.460;19.016;2022-07-29T08:48:19;100250.28;;;33.57;28.76
58757;BME280;44527;47.460;19.016;2022-07-29T08:51:22;100249.53;;;33.61;28.88
58757;BME280;44527;47.460;19.016;2022-07-29T08:54:27;100239.28;;;33.47;28.69
58757;BME280;44527;47.460;19.016;2022-07-29T08:57:30;100237.41;;;33.74;28.47
58757;BME280;44527;47.460;19.016;2022-07-29T09:00:43;100238.81;;;34.04;28.31
58757;BME280;44527;47.460;19.016;2022-07-29T09:03:46;100235.47;;;34.29;28.44
58757;BME280;44527;47.460;19.016;2022-07-29T09:06:52;100232.06;;;34.12;27.25
58757;BME280;44527;47.460;19.016;2022-07-29T09:09:57;100235.12;;;34.20;27.85
58757;BME280;44527;47.460;19.016;2022-07-29T09:12:59;100233.44;;;34.14;27.79
58757;BME280;44527;47.460;19.016;2022-07-29T09:16:01;100230.94;;;34.07;27.82
58757;BME280;44527;47.460;19.016;2022-07-29T09:19:42;100231.62;;;33.98;27.98
58757;BME280;44527;47.460;19.016;2022-07-29T09:22:46;100221.81;;;34.56;27.26
58757;BME280;44527;47.460;19.016;2022-07-29T09:25:53;100223.16;;;34.53;26.84
58757;BME280;44527;47.460;19.016;2022-07-29T09:28:55;100230.78;;;34.24;26.35
58757;BME280;44527;47.460;19.016;2022-07-29T09:31:57;100220.41;;;33.89;26.91
58757;BME280;44527;47.460;19.016;2022-07-29T09:35:20;100228.75;;;33.82;26.87
58757;BME280;44527;47.460;19.016;2022-07-29T09:38:23;100220.94;;;33.59;27.08
58757;BME280;44527;47.460;19.016;2022-07-29T09:41:26;100213.13;;;33.68;27.48
58757;BME280;44527;47.460;19.016;2022-07-29T09:44:46;100205.12;;;33.83;27.47
58757;BME280;44527;47.460;19.016;2022-07-29T09:47:49;100200.78;;;34.14;27.44
58757;BME280;44527;47.460;19.016;2022-07-29T09:50:52;100202.63;;;34.08;27.26
58757;BME280;44527;47.460;19.016;2022-07-29T09:53:55;100198.09;;;34.19;26.10
58757;BME280;44527;47.460;19.016;2022-07-29T09:56:58;100198.50;;;34.38;26.15
58757;BME280;44527;47.460;19.016;2022-07-29T10:00:04;100205.50;;;33.97;25.93
58757;BME280;44527;47.460;19.016;2022-07-29T10:03:13;100191.81;;;33.86;25.69
58757;BME280;44527;47.460;19.016;2022-07-29T10:06:16;100186.28;;;34.08;25.98
58757;BME280;44527;47.460;19.016;2022-07-29T10:09:18;100190.41;;;33.84;26.67
58757;BME280;44527;47.460;19.016;2022-07-29T10:12:24;100188.25;;;33.86;26.68
58757;BME280;44527;47.460;19.016;2022-07-29T10:15:28;100195.06;;;33.89;26.77
58757;BME280;44527;47.460;19.016;2022-07-29T10:18:32;100185.34;;;33.98;25.74
58757;BME280;44527;47.460;19.016;2022-07-29T10:21:34;100183.19;;;34.00;25.60
58757;BME280;44527;47.460;19.016;2022-07-29T10:24:38;100185.34;;;34.30;26.13
58757;BME280;44527;47.460;19.016;2022-07-29T10:27:40;100180.94;;;34.56;24.28
58757;BME280;44527;47.460;19.016;2022-07-29T10:30:44;100181.09;;;34.44;24.59
58757;BME280;44527;47.460;19.016;2022-07-29T10:44:25;100160.47;;;35.16;23.53
58757;BME280;44527;47.460;19.016;2022-07-29T10:47:29;100170.88;;;35.35;24.05
58757;BME280;44527;47.460;19.016;2022-07-29T10:50:56;100170.59;;;35.31;24.03
58757;BME280;44527;47.460;19.016;2022-07-29T10:53:59;100164.31;;;35.20;23.86
58757;BME280;44527;47.460;19.016;2022-07-29T11:00:46;100159.72;;;34.26;25.04
58757;BME280;44527;47.460;19.016;2022-07-29T11:03:50;100151.09;;;34.02;25.09
58757;BME280;44527;47.460;19.016;2022-07-29T11:17:04;100144.41;;;35.30;23.13
58757;BME280;44527;47.460;19.016;2022-07-29T11:23:35;100131.31;;;35.48;22.21
58757;BME280;44527;47.460;19.016;2022-07-29T11:26:38;100124.56;;;35.76;22.54
58757;BME280;44527;47.460;19.016;2022-07-29T11:29:51;100128.09;;;35.71;22.25
58757;BME280;44527;47.460;19.016;2022-07-29T11:32:54;100127.28;;;35.91;22.33
58757;BME280;44527;47.460;19.016;2022-07-29T11:36:11;100116.59;;;35.84;22.22
58757;BME280;44527;47.460;19.016;2022-07-29T11:39:28;100102.41;;;35.87;21.74
58757;BME280;44527;47.460;19.016;2022-07-29T11:42:40;100104.53;;;35.14;22.16
58757;BME280;44527;47.460;19.016;2022-07-29T11:45:46;100096.84;;;34.90;22.87
58757;BME280;44527;47.460;19.016;2022-07-29T11:48:49;100102.53;;;34.89;23.01
58757;BME280;44527;47.460;19.016;2022-07-29T11:51:55;100101.00;;;35.13;23.11
58757;BME280;44527;47.460;19.016;2022-07-29T11:55:01;100094.44;;;35.09;22.52
58757;BME280;44527;47.460;19.016;2022-07-29T11:58:11;100103.75;;;35.34;23.04
58757;BME280;44527;47.460;19.016;2022-07-29T12:01:17;100101.00;;;35.13;22.77
58757;BME280;44527;47.460;19.016;2022-07-29T12:04:19;100098.31;;;35.34;22.85
58757;BME280;44527;47.460;19.016;2022-07-29T12:07:29;100094.22;;;35.47;23.06
58757;BME280;44527;47.460;19.016;2022-07-29T12:10:36;100099.94;;;35.30;22.98
58757;BME280;44527;47.460;19.016;2022-07-29T12:13:39;100102.91;;;35.13;22.39
58757;BME280;44527;47.460;19.016;2022-07-29T12:16:41;100094.41;;;34.99;22.88
58757;BME280;44527;47.460;19.016;2022-07-29T12:19:44;100094.31;;;34.73;22.89
58757;BME280;44527;47.460;19.016;2022-07-29T12:22:47;100087.09;;;34.47;23.57
58757;BME280;44527;47.460;19.016;2022-07-29T12:25:51;100093.25;;;34.80;23.05
58757;BME280;44527;47.460;19.016;2022-07-29T12:28:55;100083.75;;;34.97;22.66
58757;BME280;44527;47.460;19.016;2022-07-29T12:31:57;100075.22;;;34.68;23.52
58757;BME280;44527;47.460;19.016;2022-07-29T12:35:15;100062.38;;;34.59;23.25
58757;BME280;44527;47.460;19.016;2022-07-29T12:38:19;100064.41;;;34.99;23.33
58757;BME280;44527;47.460;19.016;2022-07-29T12:41:21;100063.34;;;35.05;22.81
58757;BME280;44527;47.460;19.016;2022-07-29T12:44:24;100059.00;;;35.19;23.65
58757;BME280;44527;47.460;19.016;2022-07-29T12:47:27;100049.94;;;34.98;22.83
58757;BME280;44527;47.460;19.016;2022-07-29T12:50:29;100042.53;;;34.79;24.01
58757;BME280;44527;47.460;19.016;2022-07-29T12:53:35;100045.00;;;34.95;23.60
58757;BME280;44527;47.460;19.016;2022-07-29T12:56:38;100037.16;;;35.04;23.66
58757;BME280;44527;47.460;19.016;2022-07-29T13:00:05;100047.19;;;34.78;23.49
58757;BME280;44527;47.460;19.016;2022-07-29T13:03:09;100037.47;;;34.35;23.86
58757;BME280;44527;47.460;19.016;2022-07-29T13:09:44;100033.41;;;34.42;24.31
58757;BME280;44527;47.460;19.016;2022-07-29T13:16:07;100023.78;;;34.24;24.38
58757;BME280;44527;47.460;19.016;2022-07-29T13:19:11;100022.41;;;34.22;23.55
58757;BME280;44527;47.460;19.016;2022-07-29T13:22:21;100012.63;;;34.31;24.03
58757;BME280;44527;47.460;19.016;2022-07-29T13:25:26;100019.22;;;34.40;23.33
58757;BME280;44527;47.460;19.016;2022-07-29T13:28:28;100004.06;;;34.60;23.38
58757;BME280;44527;47.460;19.016;2022-07-29T13:31:31;100013.22;;;34.38;22.99
58757;BME280;44527;47.460;19.016;2022-07-29T13:34:33;100008.22;;;34.15;23.50
58757;BME280;44527;47.460;19.016;2022-07-29T13:37:36;99999.22;;;34.09;24.01
58757;BME280;44527;47.460;19.016;2022-07-29T13:40:41;99994.91;;;33.76;24.06
58757;BME280;44527;47.460;19.016;2022-07-29T13:43:43;99987.03;;;33.79;24.10
58757;BME280;44527;47.460;19.016;2022-07-29T13:46:45;99993.94;;;33.97;23.92
58757;BME280;44527;47.460;19.016;2022-07-29T13:49:48;99998.66;;;34.07;24.62
58757;BME280;44527;47.460;19.016;2022-07-29T13:52:50;99988.34;;;34.14;24.07
58757;BME280;44527;47.460;19.016;2022-07-29T13:55:53;99985.09;;;34.17;24.07
58757;BME280;44527;47.460;19.016;2022-07-29T13:58:56;99990.78;;;34.11;24.21
58757;BME280;44527;47.460;19.016;2022-07-29T14:01:59;99978.75;;;33.59;24.61
58757;BME280;44527;47.460;19.016;2022-07-29T14:05:02;99983.31;;;33.16;25.04
58757;BME280;44527;47.460;19.016;2022-07-29T14:08:09;99972.97;;;33.13;25.15
58757;BME280;44527;47.460;19.016;2022-07-29T14:11:11;99975.97;;;33.16;24.61
58757;BME280;44527;47.460;19.016;2022-07-29T14:14:14;99973.59;;;33.25;24.94
58757;BME280;44527;47.460;19.016;2022-07-29T14:17:16;99965.72;;;33.29;24.88
58757;BME280;44527;47.460;19.016;2022-07-29T14:20:18;99966.47;;;33.19;25.57
58757;BME280;44527;47.460;19.016;2022-07-29T14:23:21;99960.22;;;32.91;25.97
58757;BME280;44527;47.460;19.016;2022-07-29T14:26:23;99963.69;;;32.82;26.17
58757;BME280;44527;47.460;19.016;2022-07-29T14:29:26;99956.75;;;32.69;25.73
58757;BME280;44527;47.460;19.016;2022-07-29T14:32:39;99957.88;;;32.73;25.83
58757;BME280;44527;47.460;19.016;2022-07-29T14:35:42;99953.00;;;32.75;25.95
58757;BME280;44527;47.460;19.016;2022-07-29T14:38:44;99945.78;;;32.86;25.56
58757;BME280;44527;47.460;19.016;2022-07-29T14:41:46;99942.06;;;32.97;25.06
58757;BME280;44527;47.460;19.016;2022-07-29T14:44:49;99944.69;;;32.87;25.89
58757;BME280;44527;47.460;19.016;2022-07-29T14:47:51;99940.19;;;32.98;25.21
58757;BME280;44527;47.460;19.016;2022-07-29T14:50:59;99928.59;;;33.07;25.44
58757;BME280;44527;47.460;19.016;2022-07-29T14:54:06;99931.72;;;33.26;25.24
58757;BME280;44527;47.460;19.016;2022-07-29T14:57:08;99932.41;;;33.11;25.32
58757;BME280;44527;47.460;19.016;2022-07-29T15:00:11;99919.38;;;33.13;24.86
58757;BME280;44527;47.460;19.016;2022-07-29T15:03:13;99911.53;;;33.17;25.43
58757;BME280;44527;47.460;19.016;2022-07-29T15:06:26;99912.53;;;33.06;25.36
58757;BME280;44527;47.460;19.016;2022-07-29T15:09:28;99906.94;;;32.90;25.63
58757;BME280;44527;47.460;19.016;2022-07-29T15:12:31;99912.44;;;32.68;25.90
58757;BME280;44527;47.460;19.016;2022-07-29T15:15:34;99916.25;;;32.67;25.88
58757;BME280;44527;47.460;19.016;2022-07-29T15:18:36;99912.44;;;32.68;25.18
58757;BME280;44527;47.460;19.016;2022-07-29T15:21:40;99906.62;;;32.55;25.95
58757;BME280;44527;47.460;19.016;2022-07-29T15:24:50;99908.78;;;32.53;26.84
58757;BME280;44527;47.460;19.016;2022-07-29T15:27:52;99895.25;;;32.58;26.29
58757;BME280;44527;47.460;19.016;2022-07-29T15:31:00;99895.09;;;32.69;26.18
58757;BME280;44527;47.460;19.016;2022-07-29T15:34:02;99893.44;;;32.68;26.40
58757;BME280;44527;47.460;19.016;2022-07-29T15:37:07;99889.09;;;32.67;26.08
58757;BME280;44527;47.460;19.016;2022-07-29T15:40:10;99893.94;;;32.65;25.74
58757;BME280;44527;47.460;19.016;2022-07-29T15:43:13;99892.31;;;32.64;25.77
58757;BME280;44527;47.460;19.016;2022-07-29T15:46:18;99888.91;;;32.79;25.56
58757;BME280;44527;47.460;19.016;2022-07-29T15:49:40;99889.03;;;32.62;25.40
58757;BME280;44527;47.460;19.016;2022-07-29T15:52:50;99876.78;;;32.60;25.77
58757;BME280;44527;47.460;19.016;2022-07-29T15:55:52;99879.25;;;32.61;25.89
58757;BME280;44527;47.460;19.016;2022-07-29T15:58:55;99877.63;;;32.60;25.37
58757;BME280;44527;47.460;19.016;2022-07-29T16:01:58;99866.63;;;32.45;27.27
58757;BME280;44527;47.460;19.016;2022-07-29T16:05:00;99871.19;;;32.44;26.25
58757;BME280;44527;47.460;19.016;2022-07-29T16:08:03;99869.63;;;32.48;26.94
58757;BME280;44527;47.460;19.016;2022-07-29T16:11:05;99865.91;;;32.60;25.76
58757;BME280;44527;47.460;19.016;2022-07-29T16:14:08;99869.13;;;32.57;26.30
58757;BME280;44527;47.460;19.016;2022-07-29T16:17:12;99876.44;;;32.51;26.82
58757;BME280;44527;47.460;19.016;2022-07-29T16:20:16;99868.31;;;32.51;25.99
58757;BME280;44527;47.460;19.016;2022-07-29T16:23:18;99865.31;;;32.53;26.14
58757;BME280;44527;47.460;19.016;2022-07-29T16:26:20;99867.91;;;32.42;26.55
58757;BME280;44527;47.460;19.016;2022-07-29T16:29:22;99864.53;;;32.30;26.67
58757;BME280;44527;47.460;19.016;2022-07-29T16:32:25;99869.91;;;32.25;26.47
58757;BME280;44527;47.460;19.016;2022-07-29T16:35:28;99860.88;;;32.19;26.56
58757;BME280;44527;47.460;19.016;2022-07-29T16:38:41;99869.00;;;32.14;26.59
58757;BME280;44527;47.460;19.016;2022-07-29T16:41:48;99862.09;;;32.07;26.56